Kezdőlap
METAR-TAF:

METAR-TAF

Repülőterek :

Chester, Connecticut, Amerikai Egyesült Államok

földrajzi szélesség: 41-23-02N, földrajzi hosszúság: 072-30-21W, magasság: 127 m

Jelenlegi meteorológiai megfigyelések

A jelentés 12 perccel ezelõtt készült, 18:55 UTC
Nyugat-északnyugati szél 9 kt széllökések: 22 kt, nyugati és északnyugati között változik
Hőmérséklet 7°C
Páratartalom 45%
Légköri nyomás 1007 hPa
Látótávolság: 16.1 km
Borult 4900 lábon

METAR: KSNC 151855Z AUTO 29009G22KT 260V320 10SM OVC049 07/M04 A2974 RMK AO2

Idő: 14:07 (19:07 UTC)


TAF: hiányzik

Meteorológiai megfigyelések és előrejelzések több, mint 4000 repülőtéren (METAR és TAF jelentéseket).

A térképen piros és sárga pontok jelzik az elérhető meteorológiai állomásokat.

Mozgassa az egeret a pont fölött, hogy megjelenjen az állomás neve.

Azután kattintson az időjárási megfigyelések és előrejelzések megtekintéséhez.

A térkép megváltoztatása: kattintson a fekete keresztel jelölt zöld gombra ráközelítéshez, a vonallal jelölt zöld gombra távolításhoz, vagy a zöld nyilakra a szomszédos térképek eléréséhez.


METAR-TAF: